Terminal Aerodrome Forecast
Issued by NWS

Home | Current Version | Previous Version | Text Only | Print | Product List | Glossary On
Versions: 1 2 3 4 5 6 7 8 9 10 11 12
101
FTUS42 KGSP 212320
TAFGMU
TAF
KGMU 212320Z 2200/2224 VRB03KT P6SM FEW250
     FM221300 04004KT P6SM SCT200
     FM221700 11006KT P6SM BKN035=

USA.gov is the U.S. government's official web portal to all federal, state and local government web resources and services.